createdAt,value
2022-10-06T04:35:44.499Z,101889.09
2022-10-06T04:45:47.828Z,101890.13
2022-10-06T04:56:04.950Z,101887.47
2022-10-06T05:06:15.388Z,101887.41
2022-10-06T05:16:19.247Z,101886.63
2022-10-06T05:26:25.099Z,101889.75
2022-10-06T05:36:31.079Z,101880.34
2022-10-06T05:46:35.087Z,101893.03
2022-10-06T05:56:39.104Z,101909.66
2022-10-06T06:06:44.871Z,101910.12
2022-10-06T06:16:48.246Z,101921.84
2022-10-06T06:26:51.403Z,101929.56
2022-10-06T06:48:02.482Z,101934.78
2022-10-06T06:58:06.546Z,101946.53
2022-10-06T07:08:10.437Z,101947.91
2022-10-06T07:18:33.062Z,101947.12
2022-10-06T07:28:36.365Z,101949.94
2022-10-06T07:38:41.632Z,101962.06
2022-10-06T07:48:46.821Z,101950.84
2022-10-06T07:58:51.386Z,101961.16
2022-10-06T08:08:55.159Z,101967.47
2022-10-06T08:18:59.388Z,101979.13
2022-10-06T08:29:03.440Z,101982.75
2022-10-06T08:39:07.382Z,101977.38
2022-10-06T08:49:19.161Z,101979.25
2022-10-06T08:59:22.140Z,101973.28
2022-10-06T09:09:35.176Z,101970.88
2022-10-06T09:19:44.854Z,101981.03
2022-10-06T09:29:51.617Z,101983.38
2022-10-06T09:39:55.688Z,101981.56
2022-10-06T09:50:23.329Z,101969.31
2022-10-06T10:00:27.658Z,101971.09
2022-10-06T10:10:30.911Z,101975.63
2022-10-06T10:21:08.613Z,101971.50
2022-10-06T10:31:25.071Z,101961.59
2022-10-06T10:41:38.304Z,101952.69
2022-10-06T10:51:55.843Z,101947.59
2022-10-06T11:02:05.829Z,101949.31
2022-10-06T11:12:11.864Z,101941.97
2022-10-06T11:22:20.872Z,101931.37
2022-10-06T11:32:32.784Z,101922.19
2022-10-06T11:42:50.065Z,101908.59
2022-10-06T11:52:53.561Z,101893.09
2022-10-06T12:03:29.305Z,101893.63
2022-10-06T12:14:44.571Z,101889.06
2022-10-06T12:24:19.930Z,101892.66
2022-10-06T12:34:43.976Z,101887.81
2022-10-06T12:44:50.025Z,101887.56
2022-10-06T12:55:27.756Z,101889.12
2022-10-06T13:05:30.835Z,101889.88
2022-10-06T13:15:36.735Z,101883.50
2022-10-06T13:25:46.395Z,101867.75
2022-10-06T13:35:52.979Z,101888.53
2022-10-06T13:45:58.049Z,101880.50
2022-10-06T13:56:01.339Z,101880.84
2022-10-06T14:06:08.990Z,101883.31
2022-10-06T14:16:23.481Z,101894.69
2022-10-06T14:26:29.885Z,101903.28
2022-10-06T14:36:36.323Z,101902.28
2022-10-06T14:46:41.661Z,101901.88
2022-10-06T14:56:44.621Z,101907.72
2022-10-06T15:07:06.498Z,101910.81
2022-10-06T15:17:09.525Z,101911.59
2022-10-06T15:27:31.490Z,101926.56
2022-10-06T15:37:34.479Z,101937.84
2022-10-06T15:47:38.236Z,101936.38
2022-10-06T15:57:41.987Z,101946.06
2022-10-06T16:07:48.964Z,101965.16
2022-10-06T16:17:52.046Z,101965.22
2022-10-06T16:27:55.623Z,101974.97
2022-10-06T16:37:58.691Z,101988.34
2022-10-06T16:48:01.648Z,101996.91
2022-10-06T16:58:04.595Z,101999.53
2022-10-06T17:08:07.472Z,102023.03
2022-10-06T17:18:10.519Z,102022.31
2022-10-06T17:28:14.729Z,102018.38
2022-10-06T17:38:17.648Z,102031.84
2022-10-06T17:48:27.286Z,102030.22
2022-10-06T17:58:30.294Z,102020.22
2022-10-06T18:08:34.677Z,102020.91
2022-10-06T18:18:37.874Z,102028.22
2022-10-06T18:28:41.010Z,102022.69
2022-10-06T18:38:45.904Z,102027.78
2022-10-06T18:48:55.848Z,102043.41
2022-10-06T18:59:01.942Z,102031.91
2022-10-06T19:09:06.566Z,102016.25
2022-10-06T19:19:12.844Z,102036.94
2022-10-06T19:29:20.402Z,102038.16
2022-10-06T19:39:31.007Z,102045.31
2022-10-06T19:49:36.610Z,102065.28
2022-10-06T19:59:40.181Z,102054.09
2022-10-06T20:09:44.331Z,102071.31
2022-10-06T20:19:47.289Z,102081.09
2022-10-06T20:29:50.185Z,102085.09
2022-10-06T20:40:11.688Z,102073.94
2022-10-06T20:50:14.836Z,102067.22
2022-10-06T21:00:18.028Z,102072.56
2022-10-06T21:10:21.351Z,102095.66
2022-10-06T21:20:24.320Z,102105.22
2022-10-06T21:30:27.372Z,102092.06
2022-10-06T21:40:30.407Z,102091.03
2022-10-06T21:50:33.513Z,102102.50
2022-10-06T22:00:36.544Z,102112.81
2022-10-06T22:10:39.559Z,102102.50
2022-10-06T22:20:42.670Z,102107.09
2022-10-06T22:30:45.668Z,102101.63
2022-10-06T22:40:48.740Z,102091.59
2022-10-06T22:50:52.765Z,102087.47
2022-10-06T23:00:56.189Z,102092.53
2022-10-06T23:11:10.148Z,102079.06
2022-10-06T23:21:21.919Z,102075.38
2022-10-06T23:31:26.358Z,102079.25
2022-10-06T23:41:29.636Z,102072.81
2022-10-06T23:51:32.687Z,102079.62
